createdAt,value
2018-02-13T00:00:40.623Z,83.41
2018-02-13T00:03:08.215Z,83.22
2018-02-13T00:05:35.810Z,83.14
2018-02-13T00:08:03.384Z,82.65
2018-02-13T00:10:30.876Z,82.75
2018-02-13T00:12:58.349Z,82.51
2018-02-13T00:15:25.954Z,82.00
2018-02-13T00:17:53.394Z,82.03
2018-02-13T00:20:20.877Z,81.70
2018-02-13T00:22:50.124Z,81.94
2018-02-13T00:25:17.718Z,81.83
2018-02-13T00:27:45.332Z,81.92
2018-02-13T00:30:12.847Z,81.49
2018-02-13T00:32:40.337Z,81.42
2018-02-13T00:35:07.818Z,81.51
2018-02-13T00:37:35.517Z,81.45
2018-02-13T00:40:02.999Z,81.27
2018-02-13T00:42:30.470Z,81.61
2018-02-13T00:44:57.936Z,81.46
2018-02-13T00:47:25.412Z,81.69
2018-02-13T00:49:53.292Z,81.77
2018-02-13T00:52:20.835Z,81.85
2018-02-13T00:54:48.353Z,81.91
2018-02-13T00:57:15.876Z,81.86
2018-02-13T00:59:43.394Z,81.76
2018-02-13T01:02:10.878Z,81.78
2018-02-13T01:04:38.353Z,82.00
2018-02-13T01:07:05.949Z,82.19
2018-02-13T01:09:33.389Z,82.69
2018-02-13T01:12:04.451Z,82.79
2018-02-13T01:14:32.422Z,83.18
2018-02-13T01:17:07.765Z,82.88
2018-02-13T01:19:35.222Z,82.37
2018-02-13T01:22:02.704Z,82.17
2018-02-13T01:24:30.197Z,82.08
2018-02-13T01:26:57.688Z,81.87
2018-02-13T01:29:25.262Z,81.87
2018-02-13T01:31:52.739Z,81.59
2018-02-13T01:34:20.284Z,81.72
2018-02-13T01:36:47.758Z,81.40
2018-02-13T01:39:15.327Z,81.16
2018-02-13T01:41:42.818Z,81.03
2018-02-13T01:44:10.371Z,80.81
2018-02-13T01:46:37.841Z,80.70
2018-02-13T01:49:05.329Z,79.91
2018-02-13T01:51:32.882Z,79.84
2018-02-13T01:54:00.350Z,79.73
2018-02-13T01:56:27.820Z,79.80
2018-02-13T01:58:55.293Z,80.08
2018-02-13T02:01:22.764Z,80.36
2018-02-13T02:03:50.248Z,80.39
2018-02-13T02:06:17.797Z,80.07
2018-02-13T02:08:45.269Z,80.04
2018-02-13T02:11:12.846Z,79.94
2018-02-13T02:13:40.300Z,80.11
2018-02-13T02:16:07.783Z,79.90
2018-02-13T02:18:35.354Z,79.92
2018-02-13T02:21:02.960Z,80.15
2018-02-13T02:23:30.502Z,79.91
2018-02-13T02:25:58.112Z,79.66
2018-02-13T02:28:25.561Z,80.41
2018-02-13T02:30:53.045Z,80.60
2018-02-13T02:33:20.534Z,80.67
2018-02-13T02:35:48.025Z,81.51
2018-02-13T02:38:15.571Z,81.45
2018-02-13T02:40:43.041Z,81.77
2018-02-13T02:43:10.506Z,82.07
2018-02-13T02:45:38.035Z,82.16
2018-02-13T02:48:05.549Z,81.81
2018-02-13T02:50:33.085Z,82.05
2018-02-13T02:53:00.578Z,82.33
2018-02-13T02:55:28.055Z,81.95
2018-02-13T02:57:55.587Z,82.28
2018-02-13T03:00:23.071Z,82.09
2018-02-13T03:02:50.640Z,82.09
2018-02-13T03:05:18.210Z,82.17
2018-02-13T03:07:45.693Z,82.14
2018-02-13T03:10:13.179Z,82.13
2018-02-13T03:12:40.725Z,81.62
2018-02-13T03:15:08.176Z,81.71
2018-02-13T03:17:35.668Z,81.59
2018-02-13T03:20:03.133Z,81.38
2018-02-13T03:22:30.593Z,81.37
2018-02-13T03:24:58.050Z,81.72
2018-02-13T03:27:25.506Z,81.74
2018-02-13T03:29:52.977Z,82.03
2018-02-13T03:32:20.455Z,81.94
2018-02-13T03:34:47.936Z,81.93
2018-02-13T03:37:15.425Z,82.00
2018-02-13T03:39:42.985Z,82.08
2018-02-13T03:42:10.555Z,82.28
2018-02-13T03:44:38.012Z,82.04
2018-02-13T03:47:05.545Z,82.29
2018-02-13T03:49:33.030Z,82.91
2018-02-13T03:52:00.503Z,83.15
2018-02-13T03:54:28.004Z,83.13
2018-02-13T03:56:55.469Z,83.29
2018-02-13T03:59:23.059Z,83.40
2018-02-13T04:01:50.537Z,83.24
2018-02-13T04:04:18.043Z,83.33
2018-02-13T04:06:45.552Z,83.68
2018-02-13T04:09:13.029Z,83.92
2018-02-13T04:11:40.500Z,84.42
2018-02-13T04:14:07.980Z,84.79
2018-02-13T04:16:35.441Z,84.76
2018-02-13T04:19:03.675Z,85.43
2018-02-13T04:21:31.148Z,85.43
2018-02-13T04:23:58.612Z,85.32
2018-02-13T04:26:26.150Z,85.65
2018-02-13T04:28:53.702Z,85.56
2018-02-13T04:31:21.188Z,85.89
2018-02-13T04:33:48.664Z,86.51
2018-02-13T04:36:16.160Z,86.17
2018-02-13T04:38:43.633Z,86.55
2018-02-13T04:41:11.124Z,87.09
2018-02-13T04:43:38.592Z,86.65
2018-02-13T04:46:06.113Z,85.60
2018-02-13T04:48:33.590Z,86.37
2018-02-13T04:51:01.135Z,85.50
2018-02-13T04:53:28.613Z,85.59
2018-02-13T04:55:56.161Z,85.91
2018-02-13T04:58:23.638Z,86.11
2018-02-13T05:00:51.111Z,86.45
2018-02-13T05:03:18.607Z,86.75
2018-02-13T05:05:46.082Z,86.00
2018-02-13T05:08:13.630Z,85.91
2018-02-13T05:10:41.156Z,86.13
2018-02-13T05:13:08.629Z,86.54
2018-02-13T05:15:36.097Z,86.84
2018-02-13T05:18:03.572Z,87.30
2018-02-13T05:20:31.089Z,86.66
2018-02-13T05:22:58.577Z,86.58
2018-02-13T05:25:26.048Z,86.96
2018-02-13T05:27:53.582Z,87.06
2018-02-13T05:30:21.015Z,86.76
2018-02-13T05:32:48.485Z,86.63
2018-02-13T05:35:15.959Z,86.76
2018-02-13T05:37:43.464Z,86.50
2018-02-13T05:40:10.924Z,87.28
2018-02-13T05:42:38.417Z,87.46
2018-02-13T05:45:05.899Z,87.65
2018-02-13T05:47:33.380Z,87.63
2018-02-13T05:50:01.016Z,88.11
2018-02-13T05:52:28.711Z,88.37
2018-02-13T05:54:56.199Z,87.85
2018-02-13T05:57:23.676Z,89.81
2018-02-13T05:59:51.222Z,91.64
2018-02-13T06:02:18.740Z,87.48
2018-02-13T06:04:46.252Z,85.47
2018-02-13T06:07:13.737Z,83.13
2018-02-13T06:09:41.288Z,82.58
2018-02-13T06:12:08.776Z,82.50
2018-02-13T06:14:36.333Z,83.35
2018-02-13T06:17:03.801Z,83.99
2018-02-13T06:19:31.275Z,84.74
2018-02-13T06:21:58.754Z,85.65
2018-02-13T06:24:26.467Z,85.78
2018-02-13T06:26:53.937Z,86.23
2018-02-13T06:29:21.433Z,86.87
2018-02-13T06:31:48.943Z,87.50
2018-02-13T06:34:16.416Z,86.82
2018-02-13T06:36:43.909Z,86.90
2018-02-13T06:39:11.543Z,87.33
2018-02-13T06:41:39.126Z,86.73
2018-02-13T06:44:06.595Z,86.56
2018-02-13T06:46:34.515Z,84.89
2018-02-13T06:49:01.994Z,83.49
2018-02-13T06:51:29.470Z,82.90
2018-02-13T06:53:56.944Z,81.05
2018-02-13T06:56:24.417Z,80.18
2018-02-13T06:58:51.881Z,78.87
2018-02-13T07:01:19.348Z,78.25
2018-02-13T07:03:46.825Z,76.85
2018-02-13T07:06:14.335Z,75.52
2018-02-13T07:08:41.802Z,72.62
2018-02-13T07:11:09.277Z,72.48
2018-02-13T07:13:36.749Z,69.51
2018-02-13T07:16:04.244Z,69.70
2018-02-13T07:18:31.722Z,67.39
2018-02-13T07:20:59.253Z,66.07
2018-02-13T07:23:26.725Z,66.90
2018-02-13T07:25:54.302Z,66.91
2018-02-13T07:28:21.792Z,65.63
2018-02-13T07:30:49.339Z,64.95
2018-02-13T07:33:16.798Z,63.68
2018-02-13T07:35:44.384Z,62.58
2018-02-13T07:38:11.867Z,61.17
2018-02-13T07:40:39.429Z,61.30
2018-02-13T07:43:06.932Z,60.49
2018-02-13T07:45:34.475Z,59.58
2018-02-13T07:48:02.027Z,58.86
2018-02-13T07:50:29.509Z,57.46
2018-02-13T07:52:56.985Z,56.91
2018-02-13T07:55:24.566Z,57.20
2018-02-13T07:57:52.038Z,57.77
2018-02-13T08:00:19.605Z,59.39
2018-02-13T08:02:47.090Z,57.07
2018-02-13T08:05:14.582Z,56.16
2018-02-13T08:07:42.054Z,56.19
2018-02-13T08:10:09.565Z,55.05
2018-02-13T08:12:37.030Z,54.51
2018-02-13T08:15:04.589Z,56.49
2018-02-13T08:17:32.098Z,58.42
2018-02-13T08:19:59.616Z,57.36
2018-02-13T08:22:27.096Z,58.97
2018-02-13T08:24:54.631Z,57.42
2018-02-13T08:27:22.161Z,55.89
2018-02-13T08:29:49.743Z,54.12
2018-02-13T08:32:17.214Z,55.53
2018-02-13T08:34:44.785Z,54.85
2018-02-13T08:37:12.269Z,53.55
2018-02-13T08:39:39.784Z,52.23
2018-02-13T08:42:07.216Z,49.75
2018-02-13T08:44:34.702Z,49.35
2018-02-13T08:47:02.245Z,49.06
2018-02-13T08:49:29.819Z,47.52
2018-02-13T08:51:57.283Z,45.27
2018-02-13T08:54:24.805Z,43.77
2018-02-13T08:56:52.316Z,44.62
2018-02-13T08:59:20.010Z,44.04
2018-02-13T09:01:47.559Z,45.35
2018-02-13T09:04:15.122Z,43.40
2018-02-13T09:06:42.591Z,44.71
2018-02-13T09:09:10.090Z,44.28
2018-02-13T09:11:37.598Z,44.30
2018-02-13T09:14:05.090Z,43.03
2018-02-13T09:16:32.585Z,43.02
2018-02-13T09:19:00.068Z,44.62
2018-02-13T09:21:27.538Z,45.84
2018-02-13T09:23:55.088Z,47.50
2018-02-13T09:26:22.614Z,45.15
2018-02-13T09:28:50.100Z,46.32
2018-02-13T09:31:17.600Z,43.62
2018-02-13T09:33:45.066Z,44.84
2018-02-13T09:36:12.536Z,44.40
2018-02-13T09:38:39.993Z,43.73
2018-02-13T09:41:07.469Z,42.89
2018-02-13T09:43:34.992Z,44.76
2018-02-13T09:46:02.485Z,43.96
2018-02-13T09:48:29.997Z,43.00
2018-02-13T09:50:57.491Z,44.99
2018-02-13T09:53:24.967Z,44.41
2018-02-13T09:55:52.433Z,44.25
2018-02-13T09:58:19.913Z,42.68
2018-02-13T10:00:47.388Z,43.87
2018-02-13T10:03:14.865Z,44.28
2018-02-13T10:05:42.340Z,44.26
2018-02-13T10:08:09.828Z,44.86
2018-02-13T10:10:37.326Z,45.97
2018-02-13T10:13:04.981Z,43.39
2018-02-13T10:15:32.470Z,43.54
2018-02-13T10:17:59.959Z,45.16
2018-02-13T10:20:27.441Z,42.69
2018-02-13T10:22:54.960Z,41.44
2018-02-13T10:25:22.425Z,41.45
2018-02-13T10:27:49.944Z,42.35
2018-02-13T10:30:17.422Z,42.08
2018-02-13T10:32:44.908Z,41.14
2018-02-13T10:35:12.378Z,39.64
2018-02-13T10:37:39.844Z,39.00
2018-02-13T10:40:07.365Z,40.62
2018-02-13T10:42:34.843Z,42.52
2018-02-13T10:45:02.316Z,40.27
2018-02-13T10:47:29.786Z,42.33
2018-02-13T10:49:57.278Z,43.26
2018-02-13T10:52:24.757Z,45.35
2018-02-13T10:54:52.293Z,47.33
2018-02-13T10:57:19.756Z,46.04
2018-02-13T10:59:47.338Z,46.20
2018-02-13T11:02:20.390Z,44.58
2018-02-13T11:04:47.880Z,42.71
2018-02-13T11:07:15.400Z,44.63
2018-02-13T11:09:42.903Z,47.34
2018-02-13T11:12:10.420Z,45.57
2018-02-13T11:14:37.917Z,44.54
2018-02-13T11:17:05.847Z,42.52
2018-02-13T11:19:33.334Z,43.85
2018-02-13T11:22:00.814Z,44.20
2018-02-13T11:24:28.291Z,41.82
2018-02-13T11:26:55.846Z,41.09
2018-02-13T11:29:23.417Z,43.40
2018-02-13T11:31:50.993Z,44.80
2018-02-13T11:34:18.474Z,45.30
2018-02-13T11:36:46.029Z,43.46
2018-02-13T11:39:13.518Z,42.47
2018-02-13T11:41:41.090Z,43.26
2018-02-13T11:44:08.658Z,43.84
2018-02-13T11:46:36.145Z,45.31
2018-02-13T11:49:03.620Z,45.02
2018-02-13T11:51:31.142Z,45.92
2018-02-13T11:53:58.637Z,45.08
2018-02-13T11:56:26.236Z,44.65
2018-02-13T11:58:53.713Z,44.66
2018-02-13T12:01:21.209Z,44.72
2018-02-13T12:03:48.681Z,43.85
2018-02-13T12:06:16.143Z,44.35
2018-02-13T12:08:43.612Z,43.70
2018-02-13T12:11:11.105Z,42.09
2018-02-13T12:13:38.605Z,41.98
2018-02-13T12:16:06.087Z,44.03
2018-02-13T12:18:33.569Z,43.86
2018-02-13T12:21:01.035Z,44.45
2018-02-13T12:23:28.509Z,43.70
2018-02-13T12:25:55.976Z,42.45
2018-02-13T12:28:23.544Z,42.82
2018-02-13T12:30:51.018Z,43.59
2018-02-13T12:33:18.481Z,45.78
2018-02-13T12:35:45.982Z,45.84
2018-02-13T12:38:13.509Z,45.31
2018-02-13T12:40:40.981Z,44.97
2018-02-13T12:43:08.485Z,45.10
2018-02-13T12:45:36.066Z,46.89
2018-02-13T12:48:03.528Z,45.65
2018-02-13T12:50:31.004Z,47.67
2018-02-13T12:52:58.531Z,45.78
2018-02-13T12:55:26.025Z,45.38
2018-02-13T12:57:53.574Z,44.17
2018-02-13T13:00:21.047Z,42.94
2018-02-13T13:02:48.506Z,41.53
2018-02-13T13:05:15.980Z,42.32
2018-02-13T13:07:43.554Z,41.82
2018-02-13T13:10:11.013Z,42.21
2018-02-13T13:12:38.501Z,41.92
2018-02-13T13:15:05.978Z,41.33
2018-02-13T13:17:33.443Z,41.33
2018-02-13T13:20:01.010Z,41.08
2018-02-13T13:22:28.490Z,40.42
2018-02-13T13:24:56.008Z,40.42
2018-02-13T13:27:23.524Z,41.58
2018-02-13T13:29:50.985Z,41.73
2018-02-13T13:32:18.571Z,41.14
2018-02-13T13:34:46.037Z,40.53
2018-02-13T13:37:13.500Z,39.82
2018-02-13T13:39:41.069Z,41.60
2018-02-13T13:42:08.657Z,40.38
2018-02-13T13:44:36.226Z,40.75
2018-02-13T13:47:03.696Z,38.43
2018-02-13T13:49:31.261Z,38.27
2018-02-13T13:51:58.748Z,36.98
2018-02-13T13:54:26.235Z,35.88
2018-02-13T13:56:53.700Z,34.36
2018-02-13T13:59:21.252Z,34.33
2018-02-13T14:01:48.873Z,32.56
2018-02-13T14:04:16.789Z,34.25
2018-02-13T14:06:44.291Z,33.89
2018-02-13T14:09:11.818Z,32.89
2018-02-13T14:11:39.338Z,33.56
2018-02-13T14:14:06.838Z,31.74
2018-02-13T14:16:34.318Z,31.70
2018-02-13T14:19:01.968Z,32.20
2018-02-13T14:21:29.461Z,32.34
2018-02-13T14:23:56.968Z,33.27
2018-02-13T14:26:24.668Z,32.80
2018-02-13T14:28:52.398Z,33.97
2018-02-13T14:31:20.190Z,34.70
2018-02-13T14:33:47.750Z,35.37
2018-02-13T14:36:15.379Z,35.20
2018-02-13T14:38:42.936Z,34.73
2018-02-13T14:41:10.537Z,35.71
2018-02-13T14:43:38.079Z,35.58
2018-02-13T14:46:05.734Z,35.67
2018-02-13T14:48:33.197Z,37.15
2018-02-13T14:51:00.759Z,36.02
2018-02-13T14:53:28.436Z,35.00
2018-02-13T14:55:55.986Z,36.42
2018-02-13T14:58:23.494Z,36.44
2018-02-13T15:00:51.015Z,37.02
2018-02-13T15:03:18.531Z,37.20
2018-02-13T15:05:46.102Z,35.99
2018-02-13T15:08:13.688Z,34.85
2018-02-13T15:10:41.464Z,36.57
2018-02-13T15:13:08.995Z,35.57
2018-02-13T15:15:36.899Z,36.18
2018-02-13T15:18:06.873Z,36.22
2018-02-13T15:20:34.336Z,37.16
2018-02-13T15:23:02.609Z,37.20
2018-02-13T15:25:30.073Z,38.10
2018-02-13T15:27:57.579Z,39.44
2018-02-13T15:30:25.159Z,41.17
2018-02-13T15:32:52.645Z,43.34
2018-02-13T15:35:20.132Z,45.23
2018-02-13T15:37:47.642Z,47.11
2018-02-13T15:40:15.193Z,46.69
2018-02-13T15:42:42.789Z,47.19
2018-02-13T15:45:10.377Z,47.93
2018-02-13T15:47:39.608Z,49.21
2018-02-13T15:50:07.675Z,50.11
2018-02-13T15:52:35.178Z,49.93
2018-02-13T15:55:02.827Z,51.90
2018-02-13T15:57:30.497Z,51.99
2018-02-13T15:59:57.997Z,52.05
2018-02-13T16:02:25.514Z,52.56
2018-02-13T16:04:53.026Z,51.87
2018-02-13T16:07:20.480Z,52.99
2018-02-13T16:09:47.940Z,52.90
2018-02-13T16:12:15.533Z,53.17
2018-02-13T16:14:42.998Z,53.34
2018-02-13T16:17:10.541Z,53.90
2018-02-13T16:19:38.007Z,52.83
2018-02-13T16:22:05.488Z,52.91
2018-02-13T16:24:32.990Z,53.22
2018-02-13T16:27:00.445Z,54.65
2018-02-13T16:29:27.981Z,54.21
2018-02-13T16:31:55.463Z,52.45
2018-02-13T16:34:22.926Z,52.29
2018-02-13T16:36:50.393Z,52.51
2018-02-13T16:39:18.200Z,52.86
2018-02-13T16:41:45.660Z,55.99
2018-02-13T16:44:13.140Z,56.01
2018-02-13T16:46:40.638Z,55.37
2018-02-13T16:49:08.174Z,56.48
2018-02-13T16:51:35.683Z,57.13
2018-02-13T16:54:03.151Z,57.42
2018-02-13T16:56:30.609Z,59.23
2018-02-13T16:58:58.073Z,60.14
2018-02-13T17:01:25.583Z,60.50
2018-02-13T17:03:53.020Z,58.67
2018-02-13T17:06:20.487Z,59.50
2018-02-13T17:08:47.974Z,59.43
2018-02-13T17:11:15.449Z,60.34
2018-02-13T17:13:42.912Z,61.28
2018-02-13T17:16:10.433Z,61.13
2018-02-13T17:18:37.998Z,62.25
2018-02-13T17:21:05.465Z,62.75
2018-02-13T17:23:32.927Z,63.32
2018-02-13T17:26:00.401Z,63.37
2018-02-13T17:28:27.862Z,63.60
2018-02-13T17:30:55.368Z,64.20
2018-02-13T17:33:22.843Z,64.02
2018-02-13T17:35:50.335Z,64.08
2018-02-13T17:38:17.811Z,64.06
2018-02-13T17:40:45.281Z,64.12
2018-02-13T17:43:12.741Z,64.30
2018-02-13T17:45:40.202Z,65.02
2018-02-13T17:48:07.701Z,65.99
2018-02-13T17:50:35.157Z,66.39
2018-02-13T17:53:02.647Z,66.68
2018-02-13T17:55:30.135Z,66.49
2018-02-13T17:57:57.689Z,66.12
2018-02-13T18:00:25.149Z,66.97
2018-02-13T18:02:52.624Z,67.12
2018-02-13T18:05:20.089Z,67.56
2018-02-13T18:07:47.556Z,68.06
2018-02-13T18:10:15.122Z,68.68
2018-02-13T18:12:42.589Z,68.34
2018-02-13T18:15:10.079Z,68.96
2018-02-13T18:17:37.541Z,69.07
2018-02-13T18:20:05.008Z,69.41
2018-02-13T18:22:32.941Z,69.62
2018-02-13T18:25:01.014Z,69.68
2018-02-13T18:27:28.479Z,69.79
2018-02-13T18:29:55.963Z,70.19
2018-02-13T18:32:23.441Z,70.52
2018-02-13T18:34:50.959Z,70.03
2018-02-13T18:37:18.429Z,70.02
2018-02-13T18:39:45.911Z,69.32
2018-02-13T18:42:13.404Z,69.49
2018-02-13T18:44:40.871Z,70.40
2018-02-13T18:47:08.348Z,69.83
2018-02-13T18:49:35.809Z,70.36
2018-02-13T18:52:03.410Z,70.52
2018-02-13T18:54:30.893Z,70.73
2018-02-13T18:56:58.455Z,71.00
2018-02-13T18:59:25.945Z,70.85
2018-02-13T19:01:53.463Z,70.83
2018-02-13T19:04:20.931Z,71.19
2018-02-13T19:06:48.410Z,71.42
2018-02-13T19:09:15.932Z,71.59
2018-02-13T19:11:43.426Z,72.18
2018-02-13T19:14:10.920Z,72.80
2018-02-13T19:16:38.382Z,82.35
2018-02-13T19:19:05.886Z,72.75
2018-02-13T19:21:33.379Z,71.05
2018-02-13T19:24:00.842Z,71.23
2018-02-13T19:26:28.420Z,65.52
2018-02-13T19:28:55.958Z,67.93
2018-02-13T19:31:23.447Z,68.99
2018-02-13T19:33:50.927Z,70.92
2018-02-13T19:36:18.483Z,71.66
2018-02-13T19:38:46.046Z,71.64
2018-02-13T19:41:13.539Z,71.61
2018-02-13T19:43:41.054Z,72.26
2018-02-13T19:46:08.566Z,73.01
2018-02-13T19:48:36.142Z,73.34
2018-02-13T19:51:03.612Z,73.76
2018-02-13T19:53:31.140Z,74.23
2018-02-13T19:55:58.690Z,74.13
2018-02-13T19:58:26.193Z,74.39
2018-02-13T20:00:53.742Z,74.24
2018-02-13T20:03:21.252Z,75.20
2018-02-13T20:05:48.725Z,75.23
2018-02-13T20:08:16.244Z,75.42
2018-02-13T20:10:43.726Z,76.08
2018-02-13T20:13:11.253Z,76.69
2018-02-13T20:17:44.080Z,76.73
2018-02-13T20:20:11.534Z,76.49
2018-02-13T20:22:39.018Z,77.03
2018-02-13T20:25:06.533Z,76.85
2018-02-13T20:27:33.995Z,76.67
2018-02-13T20:30:01.574Z,76.61
2018-02-13T20:32:29.095Z,76.43
2018-02-13T20:34:56.576Z,76.82
2018-02-13T20:37:24.122Z,76.61
2018-02-13T20:42:58.144Z,76.97
2018-02-13T20:47:38.676Z,78.33
2018-02-13T20:53:28.499Z,78.55
2018-02-13T20:55:56.030Z,78.56
2018-02-13T20:58:23.494Z,78.76
2018-02-13T21:00:51.100Z,78.96
2018-02-13T21:03:18.564Z,78.54
2018-02-13T21:05:46.036Z,78.57
2018-02-13T21:08:13.574Z,78.31
2018-02-13T21:10:41.039Z,78.48
2018-02-13T21:13:08.552Z,78.42
2018-02-13T21:15:36.175Z,78.56
2018-02-13T21:18:03.814Z,79.18
2018-02-13T21:20:31.306Z,78.93
2018-02-13T21:22:58.783Z,79.21
2018-02-13T21:25:26.307Z,79.50
2018-02-13T21:27:53.808Z,79.74
2018-02-13T21:30:21.308Z,79.69
2018-02-13T21:32:48.769Z,79.71
2018-02-13T21:35:16.323Z,80.14
2018-02-13T21:37:43.871Z,80.13
2018-02-13T21:40:11.403Z,79.55
2018-02-13T21:42:38.880Z,79.68
2018-02-13T21:45:06.483Z,79.59
2018-02-13T21:47:33.990Z,79.54
2018-02-13T21:50:01.485Z,79.63
2018-02-13T21:52:28.996Z,79.91
2018-02-13T21:54:56.563Z,80.11
2018-02-13T21:57:24.127Z,79.90
2018-02-13T21:59:51.597Z,79.91
2018-02-13T22:02:19.176Z,80.15
2018-02-13T22:04:46.645Z,80.08
2018-02-13T22:07:14.166Z,80.21
2018-02-13T22:09:41.642Z,80.36
2018-02-13T22:12:09.115Z,80.50
2018-02-13T22:14:36.581Z,80.88
2018-02-13T22:17:04.088Z,81.43
2018-02-13T22:19:31.625Z,81.66
2018-02-13T22:21:59.881Z,82.07
2018-02-13T22:24:27.434Z,81.94
2018-02-13T22:26:55.052Z,82.36
2018-02-13T22:29:22.521Z,82.30
2018-02-13T22:31:49.994Z,82.30
2018-02-13T22:34:17.488Z,82.35
2018-02-13T22:36:44.977Z,82.47
2018-02-13T22:39:12.444Z,82.70
2018-02-13T22:41:40.145Z,82.54
2018-02-13T22:44:07.654Z,82.87
2018-02-13T22:46:35.279Z,82.99
2018-02-13T22:49:02.853Z,82.87
2018-02-13T22:51:30.323Z,83.20
2018-02-13T22:53:57.806Z,83.14
2018-02-13T22:56:25.364Z,82.90
2018-02-13T22:58:52.893Z,83.21
2018-02-13T23:01:20.369Z,83.94
2018-02-13T23:03:47.862Z,83.76
2018-02-13T23:06:15.337Z,83.47
2018-02-13T23:08:42.834Z,83.83
2018-02-13T23:11:10.333Z,84.03
2018-02-13T23:13:37.813Z,84.03
2018-02-13T23:16:05.318Z,84.31
2018-02-13T23:18:32.791Z,84.26
2018-02-13T23:21:00.277Z,84.69
2018-02-13T23:23:27.783Z,84.65
2018-02-13T23:25:55.325Z,84.87
2018-02-13T23:28:22.817Z,85.00
2018-02-13T23:30:50.344Z,85.12
2018-02-13T23:33:17.842Z,85.27
2018-02-13T23:35:45.402Z,85.32
2018-02-13T23:38:12.896Z,85.35
2018-02-13T23:40:40.377Z,85.41
2018-02-13T23:43:07.915Z,85.47
2018-02-13T23:45:35.457Z,85.44
2018-02-13T23:48:02.945Z,85.51
2018-02-13T23:50:30.431Z,85.40
2018-02-13T23:52:58.029Z,85.48
2018-02-13T23:55:25.555Z,85.57
2018-02-13T23:57:53.037Z,85.66
